Carl Junction, MO

6:33 PM CDT on April 19, 2015 (GMT -0500)
Joplin Regional | | Change Station
CLOSE
Current Station
Airport
Location: Joplin,
Elevation: 981 ft
Nearby Weather Stations
Active Advisory: Special Statement

Elev 981 ft 37.15 °N, 94.50 °W | Updated 40 minutes ago

Scattered Clouds
Scattered Clouds
65 °F
Feels Like 65 °F
N
10
Wind Variable Wind from West
Gusts 18 mph

Today
High -- | Low -- °F
--% Chance of Precip.
Yesterday
High -- | Low -- °F
Precip. -- in
6:38 AM 7:56 PM
New Moon, 2% visible
Pressure 29.61 in
Visibility 10.0 miles
Clouds Scattered Clouds 3800 ft
Dew Point 53 °F
Humidity 65%
Rainfall 0.03 in
Snow Depth Not available.
UV 2 out of 12
Pollen 8.60 out of 12
Air Quality Not available.
Flu Activity Local Activity
METAR KJLN 192253Z 27009G16KT 10SM SCT038 18/12 A2962 RMK AO2 SLP027 T01830117

More Conditions Fewer Conditions

Pressure 29.61 in
Visibility 10.0 miles
Clouds Scattered Clouds 3800 ft
Dew Point 53 °F
Humidity 65%
Rainfall 0.03 in
Snow Depth Not available.
UV 2 out of 12
Pollen 8.60 out of 12
Air Quality Not available.
Flu Activity Local Activity
METAR KJLN 192253Z 27009G16KT 10SM SCT038 18/12 A2962 RMK AO2 SLP027 T01830117

More Conditions Fewer Conditions

10-Day Weather Forecast

Almanac

Astronomy

Apr. 19, 2015 Rise Set
Actual Time
Civil Twilight
Nautical Twilight
Astronomical Twilight
Moon
Length of Visible Light
Length of Day
Tomorrow will be .
, % of the Moon is Illuminated

Today's Extremes

State Highs State Lows

Community

WunderPhotos

Upload Photos

1,815,036 photos uploaded!

WunderBlogs® & News

Nearby

Air Quality

  Air Quality AQ Index Pollutant
Not available.

Snow Depth

Station Depth Elevation

Earthquake Activity

City Distance Mag. Time & Date
Minimum magnitude displayed is 2.5.

Coastal Water Temperatures

Place Temperature

Stations

Nearby Weather Stations

Station Location Temp. Windchill Dew Point Humidity Wind Precip. Elev Updated Type
                   
Special Statement
Statement as of 6:03 PM CDT on April 19, 2015

... Significant weather advisory for northeastern Cherokee...
northwestern Jasper... southeastern Crawford and southwestern Barton
counties until 645 PM CDT...

At 600 PM CDT... National Weather Service Doppler radar was tracking a
strong thunderstorm near Beulah... or 4 miles north of Cherokee...
moving east at 40 mph. Penny size hail... and winds around 50 mph are
expected with this storm.

Locations impacted include Beulah... Cherokee... Chicopee...
Frontenac... Girard... Iantha... Lone Oak... Mindenmines... Nashville...
Neck City... Oakton... Opolis... Pittsburg... Ringo... Weir and Yale.

Other locations in this significant weather advisory include prairie
State Park.

Lat... Lon 3752 9431 3724 9438 3733 9492 3751 9488
time... Mot... loc 2303z 280deg 40kt 3740 9476


Griffin